Mondorf-les-Bains, Luxembourg
Current Conditions -  °F | °C
As of 1:50 AM on Tuesday 27 Jan 2015 (Local Time) from ELLX Reporting Station
NA  
Wind Chill: 29°   Ceiling: NA
Heat Index: 36°   Visibility: 6mi
Dew Point: 34°   Wind: 9mph
Humidity: 93%   Direction: 310°NW
Pressure: 30.15"   Gusts: NA
Location:  49.51°N, 6.28°E
Report Text: ELLX 270050Z AUTO 31008KT 9999 NDV 02/01 Q1021
Loading
Personal Weather Stations






























Interactive Weather Map New forecast layout! Learn more

10-Day Weather Forecast

Advertisements
Track Severe Weather on mobile